createdAt,value
2018-05-10T00:38:21.174Z,17.76
2018-05-10T00:40:52.263Z,17.78
2018-05-10T00:43:25.071Z,17.78
2018-05-10T00:46:02.635Z,17.77
2018-05-10T00:48:31.288Z,17.74
2018-05-10T00:51:00.636Z,17.65
2018-05-10T01:18:47.038Z,16.85
2018-05-10T01:27:04.055Z,17.08
2018-05-10T02:12:06.538Z,16.17
2018-05-10T02:34:16.653Z,15.65
2018-05-10T03:21:03.645Z,15.36
2018-05-10T03:57:06.453Z,15.15
2018-05-10T03:59:35.372Z,15.16
2018-05-10T05:03:35.061Z,16.34
2018-05-10T05:11:41.711Z,16.63
2018-05-10T05:14:18.290Z,17.50
2018-05-10T05:16:47.103Z,17.08
2018-05-10T05:22:03.757Z,17.95
2018-05-10T05:24:32.893Z,17.51
2018-05-10T05:27:01.566Z,17.50
2018-05-10T05:29:30.874Z,17.54
2018-05-10T05:32:00.203Z,17.60
2018-05-10T05:34:29.541Z,17.68
2018-05-10T05:36:58.668Z,17.78
2018-05-10T05:39:29.644Z,17.87
2018-05-10T05:42:03.948Z,17.99
2018-05-10T05:44:32.651Z,18.10
2018-05-10T05:47:02.768Z,18.23
2018-05-10T05:49:31.539Z,19.10
2018-05-10T05:52:00.623Z,19.41
2018-05-10T05:54:29.392Z,19.00
2018-05-10T05:56:58.669Z,19.03
2018-05-10T05:59:30.090Z,19.11
2018-05-10T06:02:00.768Z,19.22
2018-05-10T06:04:29.563Z,19.34
2018-05-10T06:06:59.232Z,19.46
2018-05-10T06:09:27.909Z,19.59
2018-05-10T06:11:59.576Z,20.48
2018-05-10T06:14:28.431Z,20.11
2018-05-10T06:16:57.299Z,20.93
2018-05-10T06:19:25.937Z,20.56
2018-05-10T06:21:55.742Z,20.61
2018-05-10T06:24:24.846Z,20.72
2018-05-10T06:26:54.026Z,21.62
2018-05-10T06:51:34.736Z,22.83
2018-05-10T06:59:47.736Z,23.35
2018-05-10T07:02:24.575Z,23.44
2018-05-10T07:33:04.494Z,23.92
2018-05-10T07:38:28.724Z,24.62
2018-05-10T07:43:45.358Z,25.36
2018-05-10T07:49:17.466Z,27.12
2018-05-10T07:54:45.315Z,26.51
2018-05-10T08:02:49.134Z,27.83
2018-05-10T08:05:17.820Z,27.06
2018-05-10T08:07:48.616Z,26.82
2018-05-10T08:15:55.880Z,26.54
2018-05-10T08:21:12.179Z,26.94
2018-05-10T08:26:38.470Z,27.35
2018-05-10T08:32:17.314Z,27.59
2018-05-10T08:34:50.449Z,27.70
2018-05-10T08:45:45.518Z,28.57
2018-05-10T08:48:17.979Z,28.55
2018-05-10T09:19:03.159Z,28.49
2018-05-10T09:27:06.237Z,31.01
2018-05-10T09:32:23.839Z,31.66
2018-05-10T09:57:20.299Z,30.30
2018-05-10T09:59:50.422Z,30.24
2018-05-10T10:02:19.533Z,30.26
2018-05-10T10:04:48.713Z,30.29
2018-05-10T10:07:20.083Z,30.38
2018-05-10T10:09:48.720Z,30.39
2018-05-10T10:12:19.332Z,30.40
2018-05-10T10:14:48.273Z,31.72
2018-05-10T10:17:16.876Z,30.66
2018-05-10T10:19:46.757Z,30.51
2018-05-10T10:30:48.132Z,31.94
2018-05-10T10:33:26.040Z,30.88
2018-05-10T10:38:50.371Z,30.80
2018-05-10T10:41:19.819Z,30.92
2018-05-10T10:46:38.209Z,31.13
2018-05-10T10:51:57.236Z,31.57
2018-05-10T10:54:26.794Z,31.44
2018-05-10T10:59:51.305Z,31.57
2018-05-10T11:02:35.168Z,32.79
2018-05-10T11:05:04.355Z,31.64
2018-05-10T11:10:20.719Z,31.77
2018-05-10T11:12:50.475Z,31.65
2018-05-10T11:15:21.523Z,32.98
2018-05-10T11:17:51.751Z,31.83
2018-05-10T11:20:30.883Z,31.63
2018-05-10T11:23:02.243Z,31.50
2018-05-10T11:25:30.886Z,31.45
2018-05-10T11:27:59.525Z,31.39
2018-05-10T11:30:31.651Z,31.32
2018-05-10T11:33:00.969Z,31.29
2018-05-10T11:35:35.462Z,31.31
2018-05-10T11:38:04.062Z,31.33
2018-05-10T11:40:32.736Z,31.35
2018-05-10T11:43:04.514Z,31.32
2018-05-10T11:45:33.484Z,31.26
2018-05-10T11:48:03.739Z,31.18
2018-05-10T11:50:35.104Z,31.10
2018-05-10T11:53:05.550Z,31.03
2018-05-10T11:55:34.450Z,31.00
2018-05-10T11:58:04.291Z,31.01
2018-05-10T12:00:46.406Z,31.06
2018-05-10T12:03:15.071Z,31.07
2018-05-10T12:05:43.735Z,31.16
2018-05-10T12:08:16.257Z,31.23
2018-05-10T12:10:48.016Z,31.18
2018-05-10T12:13:24.377Z,31.18
2018-05-10T12:15:54.229Z,31.14
2018-05-10T12:18:22.901Z,32.48
2018-05-10T12:20:51.718Z,31.53
2018-05-10T12:23:20.395Z,31.49
2018-05-10T12:25:49.021Z,31.49
2018-05-10T12:28:17.743Z,31.44
2018-05-10T12:30:46.363Z,31.40
2018-05-10T12:33:15.087Z,31.40
2018-05-10T12:35:43.793Z,31.37
2018-05-10T12:38:12.695Z,31.33
2018-05-10T12:40:42.396Z,31.35
2018-05-10T12:43:15.452Z,31.43
2018-05-10T12:45:44.050Z,31.52
2018-05-10T12:48:14.705Z,31.58
2018-05-10T12:50:50.121Z,31.62
2018-05-10T12:53:18.959Z,33.06
2018-05-10T12:56:02.419Z,32.19
2018-05-10T12:58:30.954Z,32.16
2018-05-10T13:00:59.594Z,32.22
2018-05-10T13:03:29.254Z,33.59
2018-05-10T13:05:57.977Z,32.66
2018-05-10T13:08:26.661Z,32.58
2018-05-10T13:10:56.842Z,32.55
2018-05-10T13:13:29.436Z,32.48
2018-05-10T13:16:09.204Z,32.37
2018-05-10T13:18:39.111Z,32.27
2018-05-10T13:21:08.210Z,32.30
2018-05-10T13:26:27.001Z,32.38
2018-05-10T13:28:57.899Z,32.50
2018-05-10T13:31:37.586Z,32.67
2018-05-10T13:34:16.213Z,34.34
2018-05-10T13:36:47.502Z,33.61
2018-05-10T13:39:20.419Z,34.88
2018-05-10T13:41:56.220Z,33.76
2018-05-10T13:44:27.381Z,33.42
2018-05-10T13:47:04.100Z,33.16
2018-05-10T13:49:35.551Z,34.19
2018-05-10T13:52:08.546Z,34.08
2018-05-10T13:54:43.022Z,33.99
2018-05-10T14:00:09.231Z,32.36
2018-05-10T14:08:29.946Z,31.96
2018-05-10T14:11:05.313Z,32.92
2018-05-10T14:13:42.416Z,32.82
2018-05-10T14:16:14.372Z,31.59
2018-05-10T14:18:58.937Z,31.19
2018-05-10T14:21:30.840Z,30.79
2018-05-10T14:24:02.238Z,30.28
2018-05-10T14:32:31.597Z,28.72
2018-05-10T14:37:58.813Z,29.40
2018-05-10T14:40:39.984Z,28.02
2018-05-10T14:43:13.219Z,28.70
2018-05-10T14:45:42.636Z,27.26
2018-05-10T14:48:12.554Z,27.03
2018-05-10T14:50:41.807Z,26.89
2018-05-10T14:53:10.982Z,26.98
2018-05-10T14:55:42.420Z,27.03
2018-05-10T14:58:11.365Z,27.25
2018-05-10T15:00:41.284Z,27.70
2018-05-10T15:03:10.274Z,28.24
2018-05-10T15:05:42.961Z,30.51
2018-05-10T15:08:11.497Z,29.72
2018-05-10T15:10:40.433Z,29.55
2018-05-10T15:13:09.509Z,29.40
2018-05-10T15:15:41.194Z,29.34
2018-05-10T15:18:09.780Z,29.41
2018-05-10T15:20:39.011Z,29.44
2018-05-10T15:23:08.096Z,29.32
2018-05-10T15:25:37.344Z,29.20
2018-05-10T15:28:06.426Z,29.17
2018-05-10T15:30:37.711Z,29.17
2018-05-10T15:33:08.250Z,30.51
2018-05-10T15:35:41.602Z,29.38
2018-05-10T15:38:10.540Z,29.04
2018-05-10T15:40:40.389Z,29.02
2018-05-10T15:43:17.060Z,28.89
2018-05-10T15:45:42.835Z,30.20
2018-05-10T15:48:11.635Z,29.16
2018-05-10T15:50:44.076Z,29.00
2018-05-10T15:53:12.693Z,29.04
2018-05-10T15:55:41.681Z,31.20
2018-05-10T15:58:10.993Z,30.89
2018-05-10T16:00:39.622Z,30.75
2018-05-10T16:03:08.293Z,30.24
2018-05-10T16:05:41.398Z,30.24
2018-05-10T16:11:00.714Z,29.14
2018-05-10T16:13:33.398Z,28.00
2018-05-10T16:16:10.685Z,27.09
2018-05-10T16:18:47.716Z,26.35
2018-05-10T16:21:16.456Z,25.99
2018-05-10T16:23:51.598Z,25.57
2018-05-10T16:26:22.808Z,25.23
2018-05-10T16:31:46.045Z,25.04
2018-05-10T16:34:16.655Z,26.13
2018-05-10T16:36:45.680Z,24.80
2018-05-10T16:39:22.089Z,24.62
2018-05-10T16:41:59.840Z,24.48
2018-05-10T16:44:31.957Z,24.49
2018-05-10T16:50:00.073Z,24.39
2018-05-10T16:52:31.950Z,24.13
2018-05-10T16:55:14.369Z,23.91
2018-05-10T16:57:54.328Z,23.83
2018-05-10T17:00:28.828Z,23.67
2018-05-10T17:03:01.913Z,23.47
2018-05-10T17:05:33.339Z,24.56
2018-05-10T17:08:02.269Z,23.44
2018-05-10T17:10:34.672Z,23.20
2018-05-10T17:13:10.175Z,23.00
2018-05-10T17:16:00.761Z,22.79
2018-05-10T17:18:38.332Z,22.60
2018-05-10T17:21:15.543Z,22.43
2018-05-10T17:23:44.507Z,22.24
2018-05-10T17:26:13.133Z,22.07
2018-05-10T17:28:41.737Z,21.95
2018-05-10T17:31:12.020Z,21.84
2018-05-10T17:33:42.814Z,22.80
2018-05-10T17:36:11.454Z,21.98
2018-05-10T17:38:40.147Z,22.74
2018-05-10T17:41:09.899Z,21.98
2018-05-10T17:43:38.741Z,21.80
2018-05-10T17:46:07.388Z,21.69
2018-05-10T17:48:38.611Z,21.56
2018-05-10T17:51:08.317Z,21.38
2018-05-10T17:56:26.211Z,22.04
2018-05-10T17:58:54.941Z,21.16
2018-05-10T18:01:24.168Z,20.98
2018-05-10T18:03:54.018Z,20.82
2018-05-10T18:06:22.974Z,20.76
2018-05-10T18:08:51.621Z,20.62
2018-05-10T18:11:20.499Z,20.54
2018-05-10T18:13:49.415Z,20.39
2018-05-10T18:16:18.029Z,20.24
2018-05-10T18:18:47.196Z,19.97
2018-05-10T18:21:15.915Z,19.70
2018-05-10T18:23:45.408Z,19.50
2018-05-10T18:26:14.121Z,19.43
2018-05-10T18:28:43.090Z,19.26
2018-05-10T18:31:11.793Z,20.01
2018-05-10T18:33:43.831Z,19.16
2018-05-10T18:36:12.563Z,18.89
2018-05-10T18:38:41.260Z,18.67
2018-05-10T18:41:09.944Z,18.57
2018-05-10T18:43:45.244Z,18.46
2018-05-10T18:46:11.785Z,18.34
2018-05-10T18:48:42.826Z,18.25
2018-05-10T18:51:11.493Z,18.14
2018-05-10T18:53:40.128Z,18.08
2018-05-10T18:56:12.257Z,18.01
2018-05-10T18:58:43.745Z,17.91
2018-05-10T19:01:12.681Z,17.81
2018-05-10T19:03:41.701Z,17.76
2018-05-10T19:06:13.442Z,18.50
2018-05-10T19:08:44.131Z,18.62
2018-05-10T19:11:19.252Z,18.68
2018-05-10T19:16:44.793Z,17.75
2018-05-10T19:19:16.656Z,17.62
2018-05-10T19:21:45.704Z,18.33
2018-05-10T19:24:15.868Z,17.73
2018-05-10T19:26:46.864Z,17.55
2018-05-10T19:29:15.716Z,17.45
2018-05-10T19:31:47.454Z,17.39
2018-05-10T19:34:22.687Z,17.32
2018-05-10T19:36:51.558Z,17.20
2018-05-10T19:39:24.749Z,17.16
2018-05-10T19:41:55.192Z,17.10
2018-05-10T19:44:25.129Z,17.11
2018-05-10T19:46:58.604Z,17.07
2018-05-10T19:49:27.605Z,17.03
2018-05-10T19:51:57.724Z,16.98
2018-05-10T19:54:26.478Z,16.95
2018-05-10T19:56:55.358Z,16.92
2018-05-10T19:59:23.974Z,17.67
2018-05-10T20:01:52.582Z,17.17
2018-05-10T20:04:22.525Z,17.05
2018-05-10T20:06:51.206Z,17.01
2018-05-10T20:09:19.901Z,16.99
2018-05-10T20:11:48.582Z,16.95
2018-05-10T20:14:17.263Z,16.94
2018-05-10T20:16:49.569Z,17.67
2018-05-10T20:19:18.194Z,17.16
2018-05-10T20:21:46.812Z,17.82
2018-05-10T20:24:15.458Z,17.92
2018-05-10T20:26:44.090Z,17.33
2018-05-10T20:29:12.993Z,17.17
2018-05-10T20:31:42.312Z,17.82
2018-05-10T20:34:10.999Z,17.93
2018-05-10T20:36:39.645Z,17.29
2018-05-10T20:39:08.477Z,17.08
2018-05-10T20:41:37.401Z,17.03
2018-05-10T20:44:05.976Z,16.96
2018-05-10T20:46:38.997Z,16.90
2018-05-10T20:49:08.936Z,16.87
2018-05-10T20:51:38.023Z,16.84
2018-05-10T20:54:09.397Z,16.83
2018-05-10T20:56:38.052Z,17.56
2018-05-10T20:59:06.688Z,17.04
2018-05-10T21:01:37.697Z,16.95
2018-05-10T21:04:09.483Z,16.90
2018-05-10T21:06:39.304Z,16.86
2018-05-10T21:09:08.284Z,16.84
2018-05-10T21:11:39.777Z,17.57
2018-05-10T21:14:09.929Z,17.77
2018-05-10T21:19:28.952Z,17.02
2018-05-10T21:21:58.915Z,16.94
2018-05-10T21:24:28.088Z,16.90
2018-05-10T21:26:59.390Z,16.88
2018-05-10T21:29:30.211Z,16.88
2018-05-10T21:31:59.369Z,16.86
2018-05-10T21:34:33.609Z,16.85
2018-05-10T21:37:03.040Z,16.83
2018-05-10T21:39:32.371Z,16.82
2018-05-10T21:42:01.873Z,17.59
2018-05-10T21:44:31.308Z,17.06
2018-05-10T21:47:09.296Z,17.72
2018-05-10T21:50:02.763Z,17.11
2018-05-10T21:52:32.307Z,16.99
2018-05-10T21:55:01.942Z,16.88
2018-05-10T21:57:43.995Z,16.82
2018-05-10T22:00:26.601Z,17.55
2018-05-10T22:02:59.794Z,16.98
2018-05-10T22:05:30.921Z,16.82
2018-05-10T22:08:01.850Z,17.48
2018-05-10T22:10:33.367Z,16.93
2018-05-10T22:13:06.569Z,16.78
2018-05-10T22:15:38.191Z,16.70
2018-05-10T22:18:16.080Z,16.65
2018-05-10T22:20:44.997Z,17.38
2018-05-10T22:23:15.770Z,16.81
2018-05-10T22:25:48.695Z,16.69
2018-05-10T22:28:20.168Z,16.62
2018-05-10T22:30:49.732Z,16.56
2018-05-10T22:33:21.351Z,16.52
2018-05-10T22:35:50.738Z,16.48
2018-05-10T22:41:08.936Z,16.35
2018-05-10T22:43:39.978Z,17.09
2018-05-10T22:46:11.716Z,16.52
2018-05-10T22:48:43.778Z,16.44
2018-05-10T22:51:18.513Z,16.38
2018-05-10T22:53:47.956Z,16.33
2018-05-10T22:56:17.164Z,16.26
2018-05-10T22:58:48.151Z,16.23
2018-05-10T23:01:21.491Z,16.19
2018-05-10T23:03:53.363Z,16.16
2018-05-10T23:06:40.836Z,16.14
2018-05-10T23:09:15.178Z,16.10
2018-05-10T23:11:50.963Z,16.09
2018-05-10T23:14:20.910Z,16.06
2018-05-10T23:16:49.905Z,16.79
2018-05-10T23:19:18.828Z,16.23
2018-05-10T23:21:55.167Z,16.09
2018-05-10T23:24:29.703Z,16.00
2018-05-10T23:27:00.786Z,15.95
2018-05-10T23:29:31.734Z,15.91
2018-05-10T23:32:03.180Z,15.88
2018-05-10T23:34:33.439Z,15.84
2018-05-10T23:37:06.831Z,15.79
2018-05-10T23:39:45.330Z,15.75
2018-05-10T23:42:14.893Z,15.72
2018-05-10T23:44:44.346Z,15.68
2018-05-10T23:47:13.733Z,16.41
2018-05-10T23:49:51.278Z,15.85
2018-05-10T23:52:22.013Z,15.70
2018-05-10T23:54:51.776Z,15.66
2018-05-10T23:57:21.068Z,16.42
2018-05-10T23:59:55.716Z,15.84
